createdAt,value
2022-09-14T00:01:58.980Z,2.87
2022-09-14T00:05:07.089Z,2.17
2022-09-14T00:08:13.122Z,2.15
2022-09-14T00:11:24.813Z,2.27
2022-09-14T00:14:29.724Z,2.35
2022-09-14T00:17:35.749Z,2.05
2022-09-14T00:20:40.953Z,3.62
2022-09-14T00:23:48.103Z,2.60
2022-09-14T00:26:55.200Z,3.45
2022-09-14T00:30:03.871Z,4.20
2022-09-14T00:33:08.655Z,3.08
2022-09-14T00:36:28.671Z,4.22
2022-09-14T00:39:37.703Z,3.42
2022-09-14T00:42:43.628Z,4.87
2022-09-14T00:45:48.356Z,5.87
2022-09-14T00:48:54.434Z,4.87
2022-09-14T00:52:11.410Z,6.37
2022-09-14T00:55:24.300Z,4.78
2022-09-14T00:58:30.583Z,5.08
2022-09-14T01:01:37.071Z,3.47
2022-09-14T01:04:42.193Z,4.15
2022-09-14T01:08:04.664Z,3.83
2022-09-14T01:11:24.445Z,3.20
2022-09-14T01:14:33.570Z,5.50
2022-09-14T01:18:24.783Z,3.98
2022-09-14T01:21:51.880Z,3.42
2022-09-14T01:25:10.294Z,4.67
2022-09-14T01:28:18.060Z,3.83
2022-09-14T01:31:28.364Z,3.00
2022-09-14T01:34:56.405Z,3.80
2022-09-14T01:38:25.261Z,2.83
2022-09-14T01:41:37.017Z,2.60
2022-09-14T01:44:47.486Z,5.40
2022-09-14T01:47:58.257Z,3.22
2022-09-14T01:51:08.522Z,3.20
2022-09-14T01:54:18.183Z,3.58
2022-09-14T01:57:46.082Z,2.83
2022-09-14T02:00:55.733Z,4.28
2022-09-14T02:04:12.117Z,3.15
2022-09-14T02:07:18.118Z,3.45
2022-09-14T02:10:25.557Z,4.60
2022-09-14T02:13:32.166Z,3.87
2022-09-14T02:16:37.614Z,6.53
2022-09-14T02:19:47.659Z,4.30
2022-09-14T02:22:53.021Z,3.72
2022-09-14T02:26:00.089Z,5.87
2022-09-14T02:29:06.145Z,3.85
2022-09-14T02:32:28.236Z,2.85
2022-09-14T02:35:54.948Z,4.45
2022-09-14T02:39:19.072Z,3.70
2022-09-14T02:42:38.208Z,3.37
2022-09-14T02:46:25.383Z,3.47
2022-09-14T02:50:05.470Z,3.12
2022-09-14T02:53:34.759Z,9.38
2022-09-14T02:56:40.796Z,3.22
2022-09-14T02:59:46.616Z,4.87
2022-09-14T03:02:53.118Z,4.22
2022-09-14T03:05:59.091Z,4.17
2022-09-14T03:09:06.564Z,3.33
2022-09-14T03:12:12.063Z,2.83
2022-09-14T03:15:17.224Z,4.00
2022-09-14T03:18:22.375Z,5.70
2022-09-14T03:21:30.060Z,3.30
2022-09-14T03:24:39.198Z,5.22
2022-09-14T03:27:44.794Z,4.15
2022-09-14T03:30:51.177Z,3.40
2022-09-14T03:33:57.543Z,4.55
2022-09-14T03:37:03.681Z,5.12
2022-09-14T03:40:10.406Z,3.60
2022-09-14T03:43:16.695Z,4.17
2022-09-14T03:46:30.857Z,3.52
2022-09-14T03:49:37.512Z,7.60
2022-09-14T03:52:43.964Z,4.83
2022-09-14T03:55:49.644Z,4.22
2022-09-14T03:58:58.773Z,5.42
2022-09-14T04:02:05.689Z,7.35
2022-09-14T04:05:11.333Z,8.20
2022-09-14T04:08:17.126Z,5.85
2022-09-14T04:11:24.607Z,4.78
2022-09-14T04:14:30.477Z,5.25
2022-09-14T04:17:35.920Z,5.53
2022-09-14T04:20:43.188Z,5.20
2022-09-14T04:24:13.613Z,4.55
2022-09-14T04:26:58.160Z,4.53
2022-09-14T04:30:07.346Z,5.15
2022-09-14T04:33:14.350Z,5.35
2022-09-14T04:36:26.074Z,4.95
2022-09-14T04:39:33.967Z,5.67
2022-09-14T04:42:41.698Z,5.20
2022-09-14T04:45:49.653Z,4.33
2022-09-14T04:48:55.997Z,6.10
2022-09-14T04:52:02.375Z,4.78
2022-09-14T04:55:09.068Z,4.30
2022-09-14T04:58:14.841Z,5.90
2022-09-14T05:01:22.323Z,6.03
2022-09-14T05:04:27.718Z,8.13
2022-09-14T05:07:37.890Z,6.33
2022-09-14T05:10:46.885Z,6.10
2022-09-14T05:13:52.363Z,6.83
2022-09-14T05:17:12.389Z,4.97
2022-09-14T05:20:21.335Z,7.87
2022-09-14T05:23:30.156Z,3.85
2022-09-14T05:26:40.058Z,6.72
2022-09-14T05:29:47.836Z,6.67
2022-09-14T05:32:57.958Z,6.95
2022-09-14T05:36:06.250Z,5.72
2022-09-14T05:39:23.047Z,7.12
2022-09-14T05:42:28.942Z,6.53
2022-09-14T05:45:34.253Z,7.17
2022-09-14T05:48:39.889Z,5.60
2022-09-14T05:51:46.496Z,6.97
2022-09-14T05:54:56.750Z,9.23
2022-09-14T05:58:07.197Z,9.75
2022-09-14T06:01:23.709Z,7.97
2022-09-14T06:04:29.756Z,8.60
2022-09-14T06:07:38.423Z,7.45
2022-09-14T06:10:44.430Z,6.60
2022-09-14T06:13:51.415Z,5.70
2022-09-14T06:16:59.562Z,6.87
2022-09-14T06:20:05.253Z,5.87
2022-09-14T06:23:12.506Z,5.72
2022-09-14T06:26:19.785Z,6.12
2022-09-14T06:29:27.981Z,8.35
2022-09-14T06:32:35.240Z,7.60
2022-09-14T06:35:40.645Z,9.58
2022-09-14T06:38:46.789Z,10.35
2022-09-14T06:45:40.469Z,10.90
2022-09-14T06:48:58.588Z,11.08
2022-09-14T06:52:05.776Z,9.88
2022-09-14T06:55:13.093Z,11.05
2022-09-14T06:58:20.820Z,12.30
2022-09-14T07:01:30.894Z,12.18
2022-09-14T07:04:44.181Z,9.75
2022-09-14T07:07:51.608Z,9.50
2022-09-14T07:11:03.718Z,10.50
2022-09-14T07:14:16.687Z,12.63
2022-09-14T07:17:23.780Z,16.27
2022-09-14T07:20:29.191Z,14.55
2022-09-14T07:23:38.276Z,12.45
2022-09-14T07:26:50.637Z,12.37
2022-09-14T07:29:56.449Z,15.65
2022-09-14T07:33:02.240Z,12.07
2022-09-14T07:36:10.228Z,13.62
2022-09-14T07:39:16.109Z,15.13
2022-09-14T07:42:22.869Z,15.65
2022-09-14T07:45:30.160Z,12.80
2022-09-14T07:48:35.947Z,12.60
2022-09-14T07:51:44.585Z,13.10
2022-09-14T07:54:51.638Z,17.60
2022-09-14T07:57:59.868Z,11.85
2022-09-14T08:01:07.403Z,8.60
2022-09-14T08:04:16.957Z,10.38
2022-09-14T08:07:23.208Z,11.03
2022-09-14T08:10:28.287Z,9.90
2022-09-14T08:13:42.192Z,12.60
2022-09-14T08:16:59.847Z,10.78
2022-09-14T08:20:07.222Z,9.53
2022-09-14T08:23:15.492Z,9.63
2022-09-14T08:26:32.458Z,8.23
2022-09-14T08:29:37.985Z,8.30
2022-09-14T08:32:43.854Z,6.33
2022-09-14T08:35:57.753Z,8.65
2022-09-14T08:38:59.226Z,4.03
2022-09-14T08:42:14.225Z,3.42
2022-09-14T08:45:22.063Z,3.83
2022-09-14T08:48:39.916Z,10.10
2022-09-14T08:52:07.925Z,4.80
2022-09-14T08:55:16.814Z,4.22
2022-09-14T08:58:42.632Z,3.52
2022-09-14T09:02:33.885Z,3.20
2022-09-14T09:06:03.228Z,3.55
2022-09-14T09:09:37.225Z,7.78
2022-09-14T09:13:02.853Z,4.03
2022-09-14T09:16:55.742Z,5.15
2022-09-14T09:20:33.526Z,5.05
2022-09-14T09:23:46.283Z,5.15
2022-09-14T09:26:52.843Z,4.65
2022-09-14T09:30:00.189Z,10.28
2022-09-14T09:33:06.432Z,4.92
2022-09-14T09:36:16.232Z,5.62
2022-09-14T09:39:22.196Z,6.67
2022-09-14T09:42:37.509Z,6.10
2022-09-14T09:46:05.667Z,6.30
2022-09-14T09:49:13.253Z,6.92
2022-09-14T09:52:25.122Z,6.05
2022-09-14T09:55:36.124Z,6.08
2022-09-14T09:58:50.886Z,7.00
2022-09-14T10:02:00.896Z,8.88
2022-09-14T10:05:27.347Z,9.35
2022-09-14T10:08:34.132Z,10.90
2022-09-14T10:11:52.966Z,11.45
2022-09-14T10:15:01.629Z,13.78
2022-09-14T10:22:26.272Z,15.63
2022-09-14T10:25:37.062Z,13.45
2022-09-14T10:28:48.029Z,13.98
2022-09-14T10:31:54.443Z,13.55
2022-09-14T10:35:01.567Z,12.95
2022-09-14T10:38:35.576Z,13.53
2022-09-14T10:41:56.081Z,14.07
2022-09-14T10:45:35.099Z,12.90
2022-09-14T10:48:56.092Z,16.00
2022-09-14T10:52:38.565Z,14.87
2022-09-14T10:56:30.120Z,11.05
2022-09-14T11:00:08.688Z,9.85
2022-09-14T11:03:45.983Z,8.00
2022-09-14T11:07:34.944Z,5.92
2022-09-14T11:11:17.880Z,5.20
2022-09-14T11:14:48.075Z,3.87
2022-09-14T11:18:07.931Z,5.30
2022-09-14T11:21:39.511Z,8.68
2022-09-14T11:25:02.102Z,6.03
2022-09-14T11:28:23.987Z,3.50
2022-09-14T11:32:19.228Z,3.37
2022-09-14T11:35:16.017Z,5.00
2022-09-14T11:38:35.865Z,3.20
2022-09-14T11:42:19.029Z,4.05
2022-09-14T11:45:39.244Z,3.17
2022-09-14T11:48:56.771Z,4.03
2022-09-14T11:52:23.993Z,6.97
2022-09-14T11:55:32.033Z,2.87
2022-09-14T11:58:40.646Z,2.83
2022-09-14T12:01:53.225Z,2.02
2022-09-14T12:05:25.194Z,4.37
2022-09-14T12:08:46.324Z,2.10
2022-09-14T12:11:52.991Z,2.10
2022-09-14T12:14:59.770Z,3.83
2022-09-14T12:18:07.596Z,2.80
2022-09-14T12:21:23.260Z,2.47
2022-09-14T12:24:30.474Z,2.65
2022-09-14T12:27:39.376Z,3.50
2022-09-14T12:31:02.296Z,3.85
2022-09-14T12:34:34.441Z,3.40
2022-09-14T12:37:48.471Z,3.85
2022-09-14T12:40:55.196Z,10.95
2022-09-14T12:44:06.759Z,2.47
2022-09-14T12:47:15.099Z,2.20
2022-09-14T12:50:33.028Z,2.00
2022-09-14T12:53:45.129Z,2.50
2022-09-14T12:57:23.547Z,2.13
2022-09-14T13:00:39.099Z,3.85
2022-09-14T13:04:05.372Z,4.22
2022-09-14T13:07:12.379Z,5.40
2022-09-14T13:10:20.183Z,2.30
2022-09-14T13:13:36.893Z,2.60
2022-09-14T13:17:00.934Z,5.37
2022-09-14T13:20:13.699Z,3.33
2022-09-14T13:23:22.754Z,1.67
2022-09-14T13:26:38.141Z,3.10
2022-09-14T13:29:45.321Z,2.58
2022-09-14T13:33:05.669Z,4.78
2022-09-14T13:36:15.887Z,4.08
2022-09-14T13:39:28.988Z,3.85
2022-09-14T13:42:35.034Z,3.72
2022-09-14T13:45:40.903Z,2.52
2022-09-14T13:48:47.731Z,2.65
2022-09-14T13:51:53.618Z,2.10
2022-09-14T13:54:59.118Z,5.35
2022-09-14T13:58:30.572Z,1.67
2022-09-14T14:01:42.811Z,2.70
2022-09-14T14:04:51.069Z,3.27
2022-09-14T14:07:59.358Z,8.83
2022-09-14T14:11:05.926Z,9.85
2022-09-14T14:14:13.721Z,8.13
2022-09-14T14:17:43.930Z,6.90
2022-09-14T14:20:52.800Z,4.55
2022-09-14T14:24:12.605Z,3.62
2022-09-14T14:27:07.945Z,3.70
2022-09-14T14:30:15.018Z,3.10
2022-09-14T14:33:30.287Z,6.17
2022-09-14T14:36:35.341Z,7.35
2022-09-14T14:39:44.395Z,5.28
2022-09-14T14:42:49.463Z,6.70
2022-09-14T14:45:54.759Z,7.75
2022-09-14T14:49:00.868Z,6.22
2022-09-14T14:52:06.293Z,7.28
2022-09-14T14:55:13.211Z,5.47
2022-09-14T14:58:21.227Z,4.70
2022-09-14T15:01:27.341Z,8.45
2022-09-14T15:04:32.192Z,8.23
2022-09-14T15:07:39.432Z,12.28
2022-09-14T15:10:45.628Z,18.92
2022-09-14T15:13:50.971Z,13.43
2022-09-14T15:16:57.931Z,8.55
2022-09-14T15:20:03.848Z,6.50
2022-09-14T15:23:09.703Z,9.80
2022-09-14T15:26:16.706Z,10.32
2022-09-14T15:29:23.335Z,6.17
2022-09-14T15:32:29.983Z,10.55
2022-09-14T15:35:37.195Z,12.90
2022-09-14T15:38:42.842Z,11.73
2022-09-14T15:41:49.029Z,6.35
2022-09-14T15:44:55.035Z,5.33
2022-09-14T15:48:04.069Z,6.95
2022-09-14T15:51:10.254Z,8.15
2022-09-14T15:54:17.587Z,10.78
2022-09-14T15:57:26.487Z,12.23
2022-09-14T16:00:33.439Z,12.05
2022-09-14T16:03:39.200Z,11.50
2022-09-14T16:06:44.868Z,9.85
2022-09-14T16:09:58.798Z,10.45
2022-09-14T16:13:05.088Z,11.50
2022-09-14T16:16:26.357Z,15.72
2022-09-14T16:19:31.941Z,13.60
2022-09-14T16:22:39.144Z,10.82
2022-09-14T16:25:48.671Z,10.98
2022-09-14T16:28:57.542Z,10.00
2022-09-14T16:32:04.561Z,12.37
2022-09-14T16:35:11.850Z,11.53
2022-09-14T16:38:21.501Z,11.80
2022-09-14T16:41:28.349Z,10.53
2022-09-14T16:44:39.776Z,10.55
2022-09-14T16:47:48.758Z,16.82
2022-09-14T16:50:56.965Z,15.40
2022-09-14T16:54:03.438Z,19.17
2022-09-14T16:57:15.113Z,21.00
2022-09-14T17:00:21.443Z,29.45
2022-09-14T17:03:31.746Z,24.35
2022-09-14T17:06:40.430Z,20.60
2022-09-14T17:09:49.442Z,18.48
2022-09-14T17:12:57.117Z,19.35
2022-09-14T17:16:03.293Z,15.98
2022-09-14T17:19:15.640Z,12.25
2022-09-14T17:22:22.275Z,11.30
2022-09-14T17:25:29.828Z,11.28
2022-09-14T17:28:42.109Z,14.07
2022-09-14T17:31:51.825Z,16.42
2022-09-14T17:34:59.989Z,16.52
2022-09-14T17:38:06.296Z,18.92
2022-09-14T17:41:31.174Z,14.28
2022-09-14T17:44:38.647Z,12.65
2022-09-14T17:47:43.738Z,12.03
2022-09-14T17:50:49.802Z,11.05
2022-09-14T17:53:56.822Z,11.25
2022-09-14T17:57:03.719Z,11.88
2022-09-14T18:00:09.038Z,11.53
2022-09-14T18:03:16.437Z,10.72
2022-09-14T18:06:24.113Z,14.43
2022-09-14T18:09:36.502Z,12.35
2022-09-14T18:12:47.895Z,12.47
2022-09-14T18:15:54.835Z,13.65
2022-09-14T18:19:01.793Z,13.43
2022-09-14T18:22:08.076Z,10.13
2022-09-14T18:25:13.710Z,11.12
2022-09-14T18:28:21.699Z,11.15
2022-09-14T18:31:29.174Z,10.85
2022-09-14T18:34:37.200Z,12.00
2022-09-14T18:37:42.431Z,13.60
2022-09-14T18:40:52.229Z,16.23
2022-09-14T18:44:00.154Z,12.03
2022-09-14T18:47:06.796Z,13.22
2022-09-14T18:50:14.945Z,13.98
2022-09-14T18:53:21.129Z,14.13
2022-09-14T18:56:29.036Z,13.68
2022-09-14T18:59:35.433Z,16.42
2022-09-14T19:02:43.138Z,13.78
2022-09-14T19:05:54.475Z,15.35
2022-09-14T19:09:01.398Z,15.13
2022-09-14T19:12:08.575Z,16.67
2022-09-14T19:15:15.937Z,18.15
2022-09-14T19:18:24.700Z,16.30
2022-09-14T19:21:34.716Z,17.52
2022-09-14T19:24:42.521Z,17.17
2022-09-14T19:27:49.509Z,14.80
2022-09-14T19:30:56.865Z,15.20
2022-09-14T19:34:04.952Z,16.35
2022-09-14T19:37:10.661Z,15.38
2022-09-14T19:40:18.803Z,16.02
2022-09-14T19:43:24.861Z,16.67
2022-09-14T19:46:33.473Z,14.33
2022-09-14T19:49:41.065Z,15.72
2022-09-14T19:52:48.065Z,14.18
2022-09-14T19:55:54.814Z,15.10
2022-09-14T19:59:05.119Z,14.20
2022-09-14T20:02:11.126Z,20.72
2022-09-14T20:05:20.132Z,15.15
2022-09-14T20:08:25.511Z,13.48
2022-09-14T20:11:35.185Z,14.47
2022-09-14T20:14:41.421Z,15.45
2022-09-14T20:17:51.191Z,14.55
2022-09-14T20:20:58.241Z,14.55
2022-09-14T20:24:17.025Z,14.73
2022-09-14T20:27:23.412Z,17.15
2022-09-14T20:30:28.980Z,15.93
2022-09-14T20:33:35.184Z,16.70
2022-09-14T20:36:41.561Z,17.07
2022-09-14T20:39:47.181Z,16.10
2022-09-14T20:42:55.506Z,19.62
2022-09-14T20:46:02.324Z,20.27
2022-09-14T20:49:09.968Z,18.50
2022-09-14T20:52:16.276Z,19.70
2022-09-14T20:55:24.403Z,18.35
2022-09-14T20:58:30.275Z,18.95
2022-09-14T21:01:38.717Z,19.40
2022-09-14T21:04:45.746Z,18.52
2022-09-14T21:07:56.375Z,17.60
2022-09-14T21:11:02.872Z,18.42
2022-09-14T21:14:09.564Z,17.23
2022-09-14T21:17:35.575Z,18.55
2022-09-14T21:20:41.247Z,20.37
2022-09-14T21:23:48.915Z,17.82
2022-09-14T21:26:55.735Z,19.48
2022-09-14T21:30:03.014Z,17.75
2022-09-14T21:33:09.536Z,18.45
2022-09-14T21:36:25.590Z,17.65
2022-09-14T21:39:35.301Z,15.83
2022-09-14T21:42:42.005Z,17.23
2022-09-14T21:45:49.569Z,16.27
2022-09-14T21:48:56.147Z,15.35
2022-09-14T21:52:04.020Z,16.55
2022-09-14T21:55:09.917Z,16.12
2022-09-14T21:58:17.341Z,15.48
2022-09-14T22:01:26.093Z,16.45
2022-09-14T22:04:37.901Z,15.53
2022-09-14T22:10:52.864Z,15.28
2022-09-14T22:13:58.850Z,18.37
2022-09-14T22:17:05.167Z,20.45
2022-09-14T22:20:11.510Z,22.45
2022-09-14T22:23:17.550Z,19.80
2022-09-14T22:26:27.591Z,17.02
2022-09-14T22:29:32.873Z,16.65
2022-09-14T22:32:39.239Z,15.70
2022-09-14T22:35:45.244Z,14.85
2022-09-14T22:38:54.071Z,15.38
2022-09-14T22:42:01.396Z,17.20
2022-09-14T22:45:07.604Z,16.62
2022-09-14T22:48:13.876Z,15.58
2022-09-14T22:51:21.031Z,14.83
2022-09-14T22:54:26.832Z,15.75
2022-09-14T22:57:32.020Z,18.77
2022-09-14T23:00:37.653Z,15.03
2022-09-14T23:03:45.457Z,14.45
2022-09-14T23:06:57.781Z,14.15
2022-09-14T23:10:03.664Z,14.47
2022-09-14T23:13:10.798Z,15.45
2022-09-14T23:16:18.818Z,13.80
2022-09-14T23:19:27.914Z,18.23
2022-09-14T23:22:33.599Z,14.15
2022-09-14T23:25:39.126Z,14.13
2022-09-14T23:28:45.634Z,16.42
2022-09-14T23:31:51.166Z,17.75
2022-09-14T23:34:58.453Z,13.43
2022-09-14T23:38:04.654Z,13.62
2022-09-14T23:41:11.085Z,15.98
2022-09-14T23:44:16.993Z,14.40
2022-09-14T23:47:22.758Z,15.93
2022-09-14T23:50:30.492Z,17.57
2022-09-14T23:53:36.580Z,14.03
2022-09-14T23:56:46.892Z,14.28
2022-09-14T23:59:52.408Z,15.70
